createdAt,value
2019-04-06T00:02:11.004Z,99510.53
2019-04-06T00:04:39.229Z,99510.45
2019-04-06T00:07:07.478Z,99509.62
2019-04-06T00:09:35.711Z,99510.80
2019-04-06T00:12:03.876Z,99509.36
2019-04-06T00:14:32.060Z,99504.61
2019-04-06T00:17:00.347Z,99498.45
2019-04-06T00:19:28.606Z,99503.23
2019-04-06T00:21:56.758Z,99501.69
2019-04-06T00:24:25.037Z,99504.83
2019-04-06T00:26:53.281Z,99500.19
2019-04-06T00:29:21.523Z,99504.70
2019-04-06T00:31:56.800Z,99506.94
2019-04-06T00:34:25.074Z,99503.66
2019-04-06T00:36:53.228Z,99504.20
2019-04-06T00:39:21.477Z,99508.52
2019-04-06T00:41:49.716Z,99507.08
2019-04-06T00:44:17.894Z,99506.02
2019-04-06T00:46:46.114Z,99504.28
2019-04-06T00:49:14.355Z,99497.07
2019-04-06T00:51:42.488Z,99503.52
2019-04-06T00:54:10.638Z,99507.57
2019-04-06T00:56:38.778Z,99509.72
2019-04-06T00:59:07.065Z,99506.27
2019-04-06T01:01:35.228Z,99503.31
2019-04-06T01:04:03.415Z,99509.78
2019-04-06T01:06:31.578Z,99502.45
2019-04-06T01:08:59.766Z,99501.93
2019-04-06T01:11:27.973Z,99499.29
2019-04-06T01:13:56.170Z,99498.98
2019-04-06T01:16:24.375Z,99501.77
2019-04-06T01:18:52.522Z,99497.70
2019-04-06T01:21:20.741Z,99512.86
2019-04-06T01:23:48.902Z,99508.08
2019-04-06T01:26:17.098Z,99508.28
2019-04-06T01:28:45.318Z,99513.36
2019-04-06T01:31:13.537Z,99513.28
2019-04-06T01:33:41.815Z,99507.63
2019-04-06T01:36:10.043Z,99511.20
2019-04-06T01:38:38.201Z,99507.47
2019-04-06T01:41:06.394Z,99501.06
2019-04-06T01:43:34.541Z,99488.03
2019-04-06T01:46:02.739Z,99488.35
2019-04-06T01:48:30.934Z,99492.91
2019-04-06T01:50:59.181Z,99487.53
2019-04-06T01:53:27.361Z,99494.62
2019-04-06T01:55:55.579Z,99490.87
2019-04-06T01:58:23.803Z,99498.69
2019-04-06T02:01:23.134Z,99497.42
2019-04-06T02:03:51.375Z,99497.20
2019-04-06T02:06:19.587Z,99494.76
2019-04-06T02:08:47.761Z,99495.63
2019-04-06T02:11:15.987Z,99492.92
2019-04-06T02:13:44.136Z,99490.50
2019-04-06T02:16:12.416Z,99490.97
2019-04-06T02:18:40.539Z,99488.91
2019-04-06T02:21:08.748Z,99492.52
2019-04-06T02:23:36.960Z,99489.42
2019-04-06T02:26:05.090Z,99490.58
2019-04-06T02:28:33.271Z,99489.20
2019-04-06T02:31:06.716Z,99494.45
2019-04-06T02:34:03.776Z,99490.69
2019-04-06T02:37:08.899Z,99489.61
2019-04-06T02:39:53.742Z,99489.52
2019-04-06T02:42:26.583Z,99488.09
2019-04-06T02:44:54.684Z,99493.64
2019-04-06T02:47:22.930Z,99491.19
2019-04-06T02:49:51.164Z,99495.86
2019-04-06T02:52:19.356Z,99487.05
2019-04-06T02:54:47.555Z,99490.45
2019-04-06T02:57:15.885Z,99484.57
2019-04-06T02:59:44.847Z,99482.11
2019-04-06T03:02:13.223Z,99479.78
2019-04-06T03:04:41.503Z,99475.52
2019-04-06T03:07:10.405Z,99483.78
2019-04-06T03:09:38.642Z,99486.06
2019-04-06T03:12:06.976Z,99477.85
2019-04-06T03:14:35.203Z,99482.30
2019-04-06T03:17:03.347Z,99491.47
2019-04-06T03:19:31.518Z,99484.80
2019-04-06T03:21:59.637Z,99496.75
2019-04-06T03:24:27.802Z,99491.03
2019-04-06T03:27:02.145Z,99483.91
2019-04-06T03:29:25.867Z,99488.57
2019-04-06T03:31:54.135Z,99488.73
2019-04-06T03:34:23.098Z,99487.10
2019-04-06T03:36:51.518Z,99478.26
2019-04-06T03:39:19.687Z,99480.02
2019-04-06T03:41:47.879Z,99479.26
2019-04-06T03:44:16.038Z,99485.53
2019-04-06T03:46:44.426Z,99482.97
2019-04-06T03:49:12.773Z,99489.86
2019-04-06T03:51:40.931Z,99483.58
2019-04-06T03:54:09.089Z,99492.86
2019-04-06T03:56:37.469Z,99484.59
2019-04-06T03:59:05.684Z,99488.55
2019-04-06T04:01:33.837Z,99487.84
2019-04-06T04:04:02.016Z,99486.62
2019-04-06T04:06:30.288Z,99486.89
2019-04-06T04:08:58.633Z,99485.25
2019-04-06T04:11:26.817Z,99487.08
2019-04-06T04:13:55.204Z,99487.55
2019-04-06T04:16:23.448Z,99483.84
2019-04-06T04:18:51.691Z,99479.28
2019-04-06T04:21:19.834Z,99478.21
2019-04-06T04:23:48.045Z,99478.61
2019-04-06T04:26:16.151Z,99477.60
2019-04-06T04:28:44.322Z,99475.95
2019-04-06T04:31:12.502Z,99483.56
2019-04-06T04:33:40.682Z,99486.95
2019-04-06T04:36:08.880Z,99491.30
2019-04-06T04:38:37.029Z,99493.05
2019-04-06T04:41:05.340Z,99490.47
2019-04-06T04:43:33.605Z,99501.24
2019-04-06T04:46:01.821Z,99499.78
2019-04-06T04:48:30.117Z,99501.05
2019-04-06T04:50:58.203Z,99513.52
2019-04-06T04:53:26.392Z,99513.91
2019-04-06T04:55:54.559Z,99514.70
2019-04-06T04:58:22.718Z,99509.52
2019-04-06T05:00:51.183Z,99511.08
2019-04-06T05:03:19.511Z,99507.34
2019-04-06T05:05:47.644Z,99513.53
2019-04-06T05:08:15.843Z,99519.34
2019-04-06T05:10:44.401Z,99516.38
2019-04-06T05:13:12.610Z,99523.83
2019-04-06T05:16:16.825Z,99521.84
2019-04-06T05:18:45.070Z,99523.18
2019-04-06T05:21:13.896Z,99519.73
2019-04-06T05:23:42.028Z,99519.09
2019-04-06T05:26:10.165Z,99522.91
2019-04-06T05:28:38.281Z,99518.88
2019-04-06T05:31:06.481Z,99520.45
2019-04-06T05:33:34.826Z,99520.45
2019-04-06T05:36:03.069Z,99512.60
2019-04-06T05:38:31.219Z,99515.45
2019-04-06T05:40:59.389Z,99521.44
2019-04-06T05:43:27.672Z,99526.39
2019-04-06T05:45:55.879Z,99525.27
2019-04-06T05:48:24.106Z,99528.09
2019-04-06T05:50:52.191Z,99525.76
2019-04-06T05:53:20.410Z,99540.22
2019-04-06T05:55:48.569Z,99526.25
2019-04-06T05:58:16.817Z,99531.82
2019-04-06T06:00:44.961Z,99537.92
2019-04-06T06:03:15.364Z,99544.41
2019-04-06T06:05:42.951Z,99545.08
2019-04-06T06:08:11.348Z,99552.95
2019-04-06T06:10:39.495Z,99549.06
2019-04-06T06:13:07.647Z,99554.13
2019-04-06T06:15:35.807Z,99553.30
2019-04-06T06:18:27.395Z,99552.58
2019-04-06T06:20:54.378Z,99554.00
2019-04-06T06:23:22.458Z,99553.09
2019-04-06T06:25:50.606Z,99553.83
2019-04-06T06:28:18.835Z,99550.73
2019-04-06T06:30:46.935Z,99555.73
2019-04-06T06:33:15.099Z,99548.64
2019-04-06T06:35:43.256Z,99550.64
2019-04-06T06:38:11.611Z,99553.73
2019-04-06T06:40:39.824Z,99549.58
2019-04-06T06:43:08.035Z,99547.45
2019-04-06T06:45:36.250Z,99548.30
2019-04-06T06:48:04.490Z,99548.34
2019-04-06T06:50:34.582Z,99544.31
2019-04-06T06:53:02.499Z,99543.20
2019-04-06T06:55:30.705Z,99544.36
2019-04-06T06:57:59.128Z,99540.19
2019-04-06T07:00:27.269Z,99540.29
2019-04-06T07:02:55.413Z,99536.80
2019-04-06T07:05:23.644Z,99540.61
2019-04-06T07:07:51.917Z,99534.59
2019-04-06T07:10:20.105Z,99536.09
2019-04-06T07:12:48.336Z,99535.64
2019-04-06T07:15:16.615Z,99531.22
2019-04-06T07:17:44.807Z,99534.52
2019-04-06T07:20:13.186Z,99536.16
2019-04-06T07:22:41.374Z,99539.79
2019-04-06T07:25:09.630Z,99543.33
2019-04-06T07:27:38.025Z,99542.23
2019-04-06T07:30:07.200Z,99546.81
2019-04-06T07:32:35.394Z,99537.73
2019-04-06T07:35:03.783Z,99541.38
2019-04-06T07:37:31.876Z,99546.70
2019-04-06T07:40:00.125Z,99556.74
2019-04-06T07:42:28.188Z,99546.00
2019-04-06T07:44:56.438Z,99543.10
2019-04-06T07:47:24.738Z,99545.69
2019-04-06T07:49:52.881Z,99548.91
2019-04-06T07:52:21.127Z,99551.05
2019-04-06T07:54:49.354Z,99543.48
2019-04-06T07:57:17.554Z,99543.20
2019-04-06T07:59:45.802Z,99542.78
2019-04-06T08:02:14.141Z,99542.31
2019-04-06T08:04:42.372Z,99538.89
2019-04-06T08:07:10.620Z,99534.70
2019-04-06T08:09:38.836Z,99526.45
2019-04-06T08:12:07.033Z,99530.05
2019-04-06T08:14:35.218Z,99534.43
2019-04-06T08:17:03.379Z,99539.73
2019-04-06T08:19:31.826Z,99536.09
2019-04-06T08:22:00.266Z,99548.83
2019-04-06T08:24:28.487Z,99546.94
2019-04-06T08:26:56.727Z,99542.06
2019-04-06T08:29:24.939Z,99537.86
2019-04-06T08:31:53.052Z,99540.88
2019-04-06T08:34:23.342Z,99541.02
2019-04-06T08:36:51.803Z,99549.02
2019-04-06T08:39:20.100Z,99540.39
2019-04-06T08:41:48.273Z,99546.45
2019-04-06T08:44:16.433Z,99540.72
2019-04-06T08:46:44.652Z,99542.83
2019-04-06T08:49:12.889Z,99541.28
2019-04-06T08:51:41.065Z,99542.27
2019-04-06T08:54:09.867Z,99547.45
2019-04-06T08:56:38.027Z,99538.85
2019-04-06T08:59:11.967Z,99539.05
2019-04-06T09:01:36.235Z,99539.67
2019-04-06T09:04:04.417Z,99539.00
2019-04-06T09:06:32.844Z,99536.67
2019-04-06T09:09:01.037Z,99539.14
2019-04-06T09:11:29.194Z,99537.17
2019-04-06T09:13:57.437Z,99536.31
2019-04-06T09:16:25.628Z,99536.42
2019-04-06T09:18:53.944Z,99544.18
2019-04-06T09:21:25.002Z,99534.92
2019-04-06T09:23:53.228Z,99532.91
2019-04-06T09:26:24.837Z,99529.65
2019-04-06T09:28:53.009Z,99533.09
2019-04-06T09:31:21.145Z,99527.38
2019-04-06T09:33:49.750Z,99533.16
2019-04-06T09:36:18.376Z,99521.95
2019-04-06T09:38:46.991Z,99528.14
2019-04-06T09:41:15.196Z,99518.94
2019-04-06T09:43:43.679Z,99512.25
2019-04-06T09:46:40.122Z,99519.64
2019-04-06T09:49:14.923Z,99518.71
2019-04-06T09:52:05.009Z,99519.64
2019-04-06T09:54:52.136Z,99517.09
2019-04-06T09:57:38.114Z,99513.41
2019-04-06T10:00:15.665Z,99524.03
2019-04-06T10:03:01.097Z,99520.08
2019-04-06T10:05:57.159Z,99516.62
2019-04-06T10:08:50.257Z,99509.73
2019-04-06T10:11:32.384Z,99507.57
2019-04-06T10:14:26.284Z,99507.95
2019-04-06T10:17:19.409Z,99505.86
2019-04-06T10:19:56.731Z,99504.86
2019-04-06T10:22:40.791Z,99504.97
2019-04-06T10:25:28.028Z,99501.42
2019-04-06T10:28:24.447Z,99501.14
2019-04-06T10:31:12.248Z,99498.96
2019-04-06T10:34:11.323Z,99500.67
2019-04-06T10:37:01.540Z,99487.18
2019-04-06T10:39:57.670Z,99495.17
2019-04-06T10:42:48.957Z,99492.69
2019-04-06T10:45:36.155Z,99482.15
2019-04-06T10:48:25.012Z,99493.78
2019-04-06T10:51:10.056Z,99490.97
2019-04-06T10:53:45.246Z,99492.71
2019-04-06T10:56:41.358Z,99490.84
2019-04-06T10:59:43.691Z,99485.04
2019-04-06T11:02:29.265Z,99483.88
2019-04-06T11:05:19.065Z,99488.59
2019-04-06T11:07:55.463Z,99484.25
2019-04-06T11:10:42.720Z,99481.57
2019-04-06T11:13:28.444Z,99481.58
2019-04-06T11:16:10.458Z,99486.55
2019-04-06T11:18:56.123Z,99481.22
2019-04-06T11:21:42.000Z,99481.00
2019-04-06T11:24:32.146Z,99469.68
2019-04-06T11:27:18.038Z,99467.93
2019-04-06T11:30:14.966Z,99464.57
2019-04-06T11:33:02.639Z,99459.47
2019-04-06T11:35:54.324Z,99455.88
2019-04-06T11:38:35.946Z,99461.18
2019-04-06T11:41:35.234Z,99459.18
2019-04-06T11:44:14.333Z,99454.58
2019-04-06T11:46:55.950Z,99453.73
2019-04-06T11:49:38.644Z,99456.80
2019-04-06T11:52:16.640Z,99445.66
2019-04-06T11:55:00.741Z,99450.46
2019-04-06T11:57:35.856Z,99449.36
2019-04-06T12:00:24.478Z,99449.27
2019-04-06T12:02:59.366Z,99450.44
2019-04-06T12:05:55.509Z,99448.18
2019-04-06T12:08:57.688Z,99439.70
2019-04-06T12:11:45.112Z,99439.03
2019-04-06T12:14:35.182Z,99437.28
2019-04-06T12:17:22.328Z,99432.69
2019-04-06T12:20:04.191Z,99430.37
2019-04-06T12:23:06.718Z,99434.93
2019-04-06T12:25:52.547Z,99430.16
2019-04-06T12:28:27.918Z,99428.44
2019-04-06T12:31:30.266Z,99421.08
2019-04-06T12:34:12.737Z,99418.61
2019-04-06T12:36:58.672Z,99418.17
2019-04-06T12:39:52.530Z,99417.92
2019-04-06T12:42:26.498Z,99415.54
2019-04-06T12:45:12.092Z,99409.13
2019-04-06T12:47:57.568Z,99406.32
2019-04-06T12:50:59.438Z,99410.22
2019-04-06T12:53:46.597Z,99405.95
2019-04-06T12:56:49.297Z,99403.42
2019-04-06T12:59:39.185Z,99398.07
2019-04-06T13:02:27.147Z,99392.38
2019-04-06T13:05:23.433Z,99382.03
2019-04-06T13:08:22.593Z,99384.73
2019-04-06T13:11:06.699Z,99385.28
2019-04-06T13:13:46.532Z,99379.53
2019-04-06T13:16:32.233Z,99378.93
2019-04-06T13:19:18.075Z,99378.29
2019-04-06T13:22:05.608Z,99383.61
2019-04-06T13:24:55.575Z,99373.89
2019-04-06T13:27:33.784Z,99376.98
2019-04-06T13:30:21.008Z,99370.86
2019-04-06T13:33:17.363Z,99369.00
2019-04-06T13:36:07.267Z,99368.91
2019-04-06T13:38:46.335Z,99370.34
2019-04-06T13:41:51.684Z,99369.13
2019-04-06T13:44:48.111Z,99368.91
2019-04-06T13:47:38.123Z,99364.38
2019-04-06T13:50:28.631Z,99366.00
2019-04-06T13:53:15.854Z,99362.95
2019-04-06T13:56:06.155Z,99357.54
2019-04-06T13:58:43.495Z,99361.37
2019-04-06T14:01:30.471Z,99353.80
2019-04-06T14:04:20.433Z,99354.89
2019-04-06T14:07:25.740Z,99361.86
2019-04-06T14:10:08.869Z,99355.55
2019-04-06T14:12:58.833Z,99356.20
2019-04-06T14:15:38.245Z,99350.38
2019-04-06T14:18:16.762Z,99355.39
2019-04-06T14:21:15.882Z,99355.22
2019-04-06T14:24:15.486Z,99353.80
2019-04-06T14:27:02.875Z,99350.14
2019-04-06T14:29:56.091Z,99345.14
2019-04-06T14:32:55.165Z,99352.25
2019-04-06T14:35:42.305Z,99356.54
2019-04-06T14:38:32.292Z,99360.58
2019-04-06T14:41:17.970Z,99356.05
2019-04-06T14:44:05.916Z,99353.64
2019-04-06T14:46:51.372Z,99356.66
2019-04-06T14:49:35.038Z,99349.72
2019-04-06T14:52:24.708Z,99359.83
2019-04-06T14:55:12.494Z,99363.60
2019-04-06T14:57:49.256Z,99358.85
2019-04-06T15:00:36.870Z,99354.50
2019-04-06T15:03:16.027Z,99362.83
2019-04-06T15:05:52.816Z,99361.66
2019-04-06T15:08:40.177Z,99363.34
2019-04-06T15:11:24.726Z,99358.50
2019-04-06T15:14:13.776Z,99361.83
2019-04-06T15:17:06.277Z,99362.97
2019-04-06T15:19:44.691Z,99371.39
2019-04-06T15:22:31.667Z,99363.19
2019-04-06T15:25:08.167Z,99360.29
2019-04-06T15:28:04.474Z,99360.39
2019-04-06T15:30:46.440Z,99359.31
2019-04-06T15:33:36.473Z,99365.93
2019-04-06T15:36:22.389Z,99365.33
2019-04-06T15:39:12.618Z,99365.20
2019-04-06T15:41:58.029Z,99361.98
2019-04-06T15:44:47.969Z,99365.37
2019-04-06T15:47:47.306Z,99364.87
2019-04-06T15:50:32.995Z,99367.53
2019-04-06T15:53:28.810Z,99354.49
2019-04-06T15:56:05.742Z,99353.53
2019-04-06T15:58:40.971Z,99354.22
2019-04-06T16:01:40.190Z,99351.63
2019-04-06T16:04:25.969Z,99349.53
2019-04-06T16:07:11.617Z,99351.88
2019-04-06T16:09:57.708Z,99347.66
2019-04-06T16:12:34.541Z,99352.03
2019-04-06T16:15:20.559Z,99346.97
2019-04-06T16:18:05.518Z,99346.92
2019-04-06T16:20:48.750Z,99355.13
2019-04-06T16:23:29.384Z,99346.16
2019-04-06T16:26:05.829Z,99353.77
2019-04-06T16:28:51.485Z,99349.22
2019-04-06T16:31:37.511Z,99344.23
2019-04-06T16:34:16.507Z,99344.50
2019-04-06T16:37:06.393Z,99346.23
2019-04-06T16:39:40.759Z,99346.78
2019-04-06T16:42:43.079Z,99343.84
2019-04-06T16:45:26.164Z,99347.48
2019-04-06T16:48:13.152Z,99344.87
2019-04-06T16:51:03.036Z,99342.33
2019-04-06T16:53:56.427Z,99338.72
2019-04-06T16:56:41.965Z,99344.11
2019-04-06T16:59:20.865Z,99339.31
2019-04-06T17:02:24.385Z,99332.91
2019-04-06T17:05:07.752Z,99336.56
2019-04-06T17:07:56.163Z,99335.02
2019-04-06T17:10:43.313Z,99334.25
2019-04-06T17:13:22.241Z,99340.36
2019-04-06T17:16:12.208Z,99337.81
2019-04-06T17:18:56.130Z,99335.20
2019-04-06T17:21:52.209Z,99331.03
2019-04-06T17:24:31.723Z,99327.56
2019-04-06T17:27:15.101Z,99336.91
2019-04-06T17:30:02.192Z,99330.64
2019-04-06T17:32:56.231Z,99330.36
2019-04-06T17:35:41.622Z,99327.53
2019-04-06T17:38:16.968Z,99330.14
2019-04-06T17:41:04.316Z,99331.23
2019-04-06T17:43:57.579Z,99337.20
2019-04-06T17:46:35.704Z,99341.20
2019-04-06T17:49:31.836Z,99339.88
2019-04-06T17:52:17.594Z,99344.85
2019-04-06T17:55:04.908Z,99347.61
2019-04-06T17:57:40.643Z,99344.69
2019-04-06T18:00:37.088Z,99348.59
2019-04-06T18:03:30.558Z,99351.80
2019-04-06T18:06:16.441Z,99346.22
2019-04-06T18:09:13.053Z,99349.59
2019-04-06T18:12:03.096Z,99353.63
2019-04-06T18:14:30.723Z,99345.92
2019-04-06T18:16:58.794Z,99352.45
2019-04-06T18:19:27.394Z,99348.19
2019-04-06T18:21:55.678Z,99354.72
2019-04-06T18:24:23.958Z,99353.25
2019-04-06T18:26:52.294Z,99350.98
2019-04-06T18:29:20.635Z,99355.22
2019-04-06T18:32:16.313Z,99359.17
2019-04-06T18:34:44.588Z,99361.52
2019-04-06T18:37:31.795Z,99358.38
2019-04-06T18:40:01.742Z,99360.43
2019-04-06T18:42:29.986Z,99357.52
2019-04-06T18:44:58.745Z,99359.54
2019-04-06T18:47:27.549Z,99356.75
2019-04-06T18:49:55.927Z,99359.01
2019-04-06T18:52:24.093Z,99362.58
2019-04-06T18:54:52.273Z,99365.43
2019-04-06T18:57:20.927Z,99363.69
2019-04-06T18:59:49.268Z,99370.11
2019-04-06T19:02:17.707Z,99369.56
2019-04-06T19:04:46.462Z,99370.27
2019-04-06T19:07:15.323Z,99369.27
2019-04-06T19:09:44.131Z,99370.33
2019-04-06T19:12:12.321Z,99368.98
2019-04-06T19:14:40.766Z,99369.95
2019-04-06T19:17:08.910Z,99370.67
2019-04-06T19:19:37.406Z,99369.06
2019-04-06T19:22:05.821Z,99370.41
2019-04-06T19:24:34.103Z,99363.55
2019-04-06T19:27:02.422Z,99356.89
2019-04-06T19:29:30.556Z,99361.69
2019-04-06T19:31:58.960Z,99367.05
2019-04-06T19:34:27.414Z,99367.70
2019-04-06T19:36:55.741Z,99368.59
2019-04-06T19:39:24.183Z,99361.27
2019-04-06T19:41:52.628Z,99364.17
2019-04-06T19:44:20.902Z,99364.17
2019-04-06T19:46:49.088Z,99361.56
2019-04-06T19:49:17.863Z,99365.66
2019-04-06T19:51:46.583Z,99361.92
2019-04-06T19:54:14.877Z,99369.56
2019-04-06T19:56:43.258Z,99363.08
2019-04-06T19:59:12.962Z,99365.27
2019-04-06T20:01:41.456Z,99359.55
2019-04-06T20:04:10.151Z,99358.34
2019-04-06T20:06:38.279Z,99357.55
2019-04-06T20:09:08.539Z,99350.54
2019-04-06T20:11:35.757Z,99357.69
2019-04-06T20:14:04.144Z,99356.16
2019-04-06T20:16:32.348Z,99349.59
2019-04-06T20:19:00.675Z,99358.78
2019-04-06T20:21:28.816Z,99355.24
2019-04-06T20:23:57.235Z,99358.44
2019-04-06T20:26:25.784Z,99353.64
2019-04-06T20:28:53.952Z,99359.02
2019-04-06T20:31:22.186Z,99358.66
2019-04-06T20:33:52.368Z,99353.84
2019-04-06T20:36:20.491Z,99354.05
2019-04-06T20:38:48.717Z,99351.35
2019-04-06T20:41:16.926Z,99352.69
2019-04-06T20:43:45.312Z,99355.19
2019-04-06T20:46:13.477Z,99347.12
2019-04-06T20:48:41.648Z,99349.09
2019-04-06T20:51:10.509Z,99352.73
2019-04-06T20:53:41.823Z,99356.44
2019-04-06T20:56:09.961Z,99355.23
2019-04-06T20:58:38.341Z,99352.79
2019-04-06T21:01:06.645Z,99356.45
2019-04-06T21:03:34.838Z,99353.22
2019-04-06T21:06:03.085Z,99351.20
2019-04-06T21:08:32.023Z,99350.72
2019-04-06T21:11:00.347Z,99352.36
2019-04-06T21:13:28.597Z,99351.95
2019-04-06T21:15:56.764Z,99354.41
2019-04-06T21:18:25.308Z,99354.36
2019-04-06T21:20:54.271Z,99353.09
2019-04-06T21:23:22.862Z,99354.94
2019-04-06T21:25:51.959Z,99351.72
2019-04-06T21:28:20.778Z,99358.10
2019-04-06T21:30:49.118Z,99350.87
2019-04-06T21:33:17.265Z,99359.75
2019-04-06T21:35:45.817Z,99356.11
2019-04-06T21:38:13.993Z,99354.48
2019-04-06T21:40:42.147Z,99355.20
2019-04-06T21:43:10.382Z,99353.97
2019-04-06T21:45:38.698Z,99354.52
2019-04-06T21:48:07.517Z,99362.17
2019-04-06T21:50:35.719Z,99360.34
2019-04-06T21:53:03.871Z,99360.20
2019-04-06T21:55:32.307Z,99361.84
2019-04-06T21:58:00.565Z,99363.28
2019-04-06T22:00:46.565Z,99360.77
2019-04-06T22:03:14.791Z,99369.57
2019-04-06T22:05:42.974Z,99361.45
2019-04-06T22:08:11.805Z,99371.47
2019-04-06T22:10:40.097Z,99357.69
2019-04-06T22:13:08.437Z,99359.88
2019-04-06T22:15:37.162Z,99364.92
2019-04-06T22:18:06.129Z,99362.09
2019-04-06T22:20:34.553Z,99363.33
2019-04-06T22:23:04.184Z,99361.36
2019-04-06T22:25:32.353Z,99362.98
2019-04-06T22:28:00.783Z,99355.05
2019-04-06T22:30:29.000Z,99360.75
2019-04-06T22:32:57.340Z,99357.28
2019-04-06T22:35:25.702Z,99361.45
2019-04-06T22:37:55.371Z,99359.05
2019-04-06T22:40:23.842Z,99362.30
2019-04-06T22:42:52.723Z,99365.99
2019-04-06T22:45:21.929Z,99361.88
2019-04-06T22:47:50.759Z,99357.33
2019-04-06T22:50:19.170Z,99352.98
2019-04-06T22:52:47.792Z,99353.79
2019-04-06T22:55:16.435Z,99360.27
2019-04-06T22:57:44.721Z,99347.59
2019-04-06T23:00:25.206Z,99349.72
2019-04-06T23:03:11.670Z,99344.63
2019-04-06T23:05:43.983Z,99345.58
2019-04-06T23:08:12.110Z,99358.19
2019-04-06T23:10:40.920Z,99353.87
2019-04-06T23:13:09.057Z,99351.53
2019-04-06T23:15:37.238Z,99359.47
2019-04-06T23:18:05.854Z,99355.41
2019-04-06T23:20:34.613Z,99357.12
2019-04-06T23:23:03.760Z,99361.00
2019-04-06T23:25:32.340Z,99357.42
2019-04-06T23:28:00.990Z,99360.68
2019-04-06T23:30:29.302Z,99360.30
2019-04-06T23:32:58.089Z,99361.69
2019-04-06T23:35:26.492Z,99355.41
2019-04-06T23:37:54.966Z,99359.16
2019-04-06T23:40:23.186Z,99358.08
2019-04-06T23:42:51.462Z,99357.02
2019-04-06T23:45:19.700Z,99359.74
2019-04-06T23:47:48.344Z,99363.69
2019-04-06T23:50:17.010Z,99360.41
2019-04-06T23:52:45.182Z,99355.45
2019-04-06T23:55:13.529Z,99357.95
2019-04-06T23:57:41.684Z,99358.05
